createdAt,value
2022-10-09T00:00:00.291Z,1021.74
2022-10-09T00:16:02.458Z,1021.91
2022-10-09T00:31:04.509Z,1021.95
2022-10-09T00:46:01.618Z,1021.98
2022-10-09T01:00:03.789Z,1021.95
2022-10-09T01:16:01.270Z,1021.95
2022-10-09T01:31:03.489Z,1021.88
2022-10-09T01:46:00.704Z,1021.71
2022-10-09T02:00:02.608Z,1021.61
2022-10-09T02:15:59.905Z,1021.58
2022-10-09T02:31:02.274Z,1021.51
2022-10-09T02:46:04.561Z,1021.44
2022-10-09T03:00:01.820Z,1021.44
2022-10-09T03:16:04.244Z,1021.58
2022-10-09T03:31:01.652Z,1021.68
2022-10-09T03:46:03.616Z,1021.85
2022-10-09T04:00:00.481Z,1021.98
2022-10-09T04:16:02.908Z,1021.91
2022-10-09T04:31:00.100Z,1022.05
2022-10-09T04:46:02.456Z,1022.05
2022-10-09T05:00:04.415Z,1021.98
2022-10-09T05:16:01.850Z,1022.08
2022-10-09T05:31:04.239Z,1021.98
2022-10-09T05:46:01.536Z,1022.05
2022-10-09T06:00:03.539Z,1022.12
2022-10-09T06:16:00.779Z,1022.25
2022-10-09T06:31:03.038Z,1022.46
2022-10-09T06:46:01.132Z,1022.66
2022-10-09T07:00:02.392Z,1022.86
2022-10-09T07:16:03.987Z,1023.1
2022-10-09T07:31:02.155Z,1023.23
2022-10-09T07:46:04.445Z,1023.2
2022-10-09T08:00:01.482Z,1023.3
2022-10-09T08:16:03.816Z,1023.44
2022-10-09T08:31:00.863Z,1023.47
2022-10-09T08:46:03.157Z,1023.4
2022-10-09T09:00:00.241Z,1023.47
2022-10-09T09:16:02.674Z,1023.44
2022-10-09T09:31:04.647Z,1023.44
2022-10-09T09:46:01.973Z,1023.3
2022-10-09T10:00:03.921Z,1023.23
2022-10-09T10:16:01.168Z,1023.03
2022-10-09T10:31:03.650Z,1022.93
2022-10-09T10:46:00.795Z,1022.86
2022-10-09T11:00:02.931Z,1022.69
2022-10-09T11:16:00.042Z,1022.56
2022-10-09T11:31:02.043Z,1022.35
2022-10-09T11:46:04.429Z,1022.12
2022-10-09T12:00:01.541Z,1021.91
2022-10-09T12:16:04.027Z,1021.68
2022-10-09T12:31:01.289Z,1021.47
2022-10-09T12:46:03.551Z,1021.34
2022-10-09T13:00:00.674Z,1021.2
2022-10-09T13:16:03.215Z,1021.17
2022-10-09T13:31:00.400Z,1021.03
2022-10-09T13:46:02.858Z,1021.03
2022-10-09T14:00:04.745Z,1021.03
2022-10-09T14:16:02.269Z,1021
2022-10-09T14:31:04.425Z,1021.1
2022-10-09T14:46:01.721Z,1021
2022-10-09T15:00:04.138Z,1021
2022-10-09T15:16:01.315Z,1020.9
2022-10-09T15:31:05.067Z,1020.9
2022-10-09T15:46:00.639Z,1020.97
2022-10-09T16:00:02.448Z,1020.93
2022-10-09T16:15:59.741Z,1021
2022-10-09T16:31:02.162Z,1021.07
2022-10-09T16:46:04.606Z,1021.14
2022-10-09T17:00:01.943Z,1021.2
2022-10-09T17:16:04.003Z,1021.3
2022-10-09T17:31:00.979Z,1021.3
2022-10-09T17:46:03.090Z,1021.47
2022-10-09T18:00:00.125Z,1021.54
2022-10-09T18:16:02.474Z,1021.71
2022-10-09T18:31:04.475Z,1021.74
2022-10-09T18:46:01.301Z,1021.74
2022-10-09T19:00:03.503Z,1021.81
2022-10-09T19:16:01.062Z,1021.91
2022-10-09T19:31:03.414Z,1021.98
2022-10-09T19:46:00.726Z,1022.05
2022-10-09T20:00:02.888Z,1022.15
2022-10-09T20:16:00.284Z,1022.02
2022-10-09T20:31:02.564Z,1022.08
2022-10-09T20:46:04.623Z,1022.18
2022-10-09T21:00:01.771Z,1022.22
2022-10-09T21:16:04.274Z,1022.32
2022-10-09T21:31:01.718Z,1022.25
2022-10-09T21:46:04.040Z,1022.29
2022-10-09T22:00:01.320Z,1022.35
2022-10-09T22:16:03.760Z,1022.35
2022-10-09T22:31:01.336Z,1022.32
2022-10-09T22:46:04.306Z,1022.35
2022-10-09T23:00:00.643Z,1022.32
2022-10-09T23:16:03.016Z,1022.25
2022-10-09T23:31:00.315Z,1022.25
2022-10-09T23:46:02.680Z,1022.15
2022-10-09T23:59:59.871Z,1022.18
